sensor_id;sensor_type;location;lat;lon;timestamp;temperature;humidity
20102;DHT22;10210;52.284;9.892;2024-03-17T00:02:22;9.20;99.90
20102;DHT22;10210;52.284;9.892;2024-03-17T00:04:48;9.20;99.90
20102;DHT22;10210;52.284;9.892;2024-03-17T00:07:14;9.20;99.90
20102;DHT22;10210;52.284;9.892;2024-03-17T00:09:41;9.20;99.90
20102;DHT22;10210;52.284;9.892;2024-03-17T00:12:07;9.20;99.90
20102;DHT22;10210;52.284;9.892;2024-03-17T00:14:34;9.20;99.90
20102;DHT22;10210;52.284;9.892;2024-03-17T00:17:04;9.10;99.90
20102;DHT22;10210;52.284;9.892;2024-03-17T00:19:30;9.10;99.90
20102;DHT22;10210;52.284;9.892;2024-03-17T00:21:55;9.10;99.90
20102;DHT22;10210;52.284;9.892;2024-03-17T00:24:21;9.10;99.90
20102;DHT22;10210;52.284;9.892;2024-03-17T00:26:47;9.00;99.90
20102;DHT22;10210;52.284;9.892;2024-03-17T00:29:14;9.00;99.90
20102;DHT22;10210;52.284;9.892;2024-03-17T00:31:41;9.00;99.90
20102;DHT22;10210;52.284;9.892;2024-03-17T00:34:08;9.00;99.90
20102;DHT22;10210;52.284;9.892;2024-03-17T00:36:34;9.00;99.90
20102;DHT22;10210;52.284;9.892;2024-03-17T00:39:00;9.00;99.90
20102;DHT22;10210;52.284;9.892;2024-03-17T00:41:26;9.00;99.90
20102;DHT22;10210;52.284;9.892;2024-03-17T00:43:52;9.00;99.90
20102;DHT22;10210;52.284;9.892;2024-03-17T00:46:21;8.90;99.90
20102;DHT22;10210;52.284;9.892;2024-03-17T00:48:50;8.90;99.90
20102;DHT22;10210;52.284;9.892;2024-03-17T00:51:16;8.90;99.90
20102;DHT22;10210;52.284;9.892;2024-03-17T00:53:42;8.90;99.90
20102;DHT22;10210;52.284;9.892;2024-03-17T00:56:09;8.90;99.90
20102;DHT22;10210;52.284;9.892;2024-03-17T00:58:35;8.90;99.90
20102;DHT22;10210;52.284;9.892;2024-03-17T01:01:04;8.90;99.90
20102;DHT22;10210;52.284;9.892;2024-03-17T01:03:29;8.90;99.90
20102;DHT22;10210;52.284;9.892;2024-03-17T01:05:55;8.90;99.90
20102;DHT22;10210;52.284;9.892;2024-03-17T01:08:21;8.80;99.90
20102;DHT22;10210;52.284;9.892;2024-03-17T01:10:48;8.80;99.90
20102;DHT22;10210;52.284;9.892;2024-03-17T01:13:17;8.80;99.90
20102;DHT22;10210;52.284;9.892;2024-03-17T01:15:44;8.80;99.90
20102;DHT22;10210;52.284;9.892;2024-03-17T01:18:09;8.90;99.90
20102;DHT22;10210;52.284;9.892;2024-03-17T01:20:36;8.90;99.90
20102;DHT22;10210;52.284;9.892;2024-03-17T01:23:04;8.90;99.90
20102;DHT22;10210;52.284;9.892;2024-03-17T01:25:30;8.80;99.90
20102;DHT22;10210;52.284;9.892;2024-03-17T01:27:56;8.90;99.90
20102;DHT22;10210;52.284;9.892;2024-03-17T01:30:23;8.80;99.90
20102;DHT22;10210;52.284;9.892;2024-03-17T01:32:50;8.80;99.90
20102;DHT22;10210;52.284;9.892;2024-03-17T01:35:17;8.80;99.90
20102;DHT22;10210;52.284;9.892;2024-03-17T01:37:43;8.90;99.90
20102;DHT22;10210;52.284;9.892;2024-03-17T01:40:12;8.80;99.90
20102;DHT22;10210;52.284;9.892;2024-03-17T01:42:43;8.80;99.90
20102;DHT22;10210;52.284;9.892;2024-03-17T01:45:31;8.80;99.90
20102;DHT22;10210;52.284;9.892;2024-03-17T01:48:02;8.80;99.90
20102;DHT22;10210;52.284;9.892;2024-03-17T01:50:34;8.80;99.90
20102;DHT22;10210;52.284;9.892;2024-03-17T01:53:03;8.70;99.90
20102;DHT22;10210;52.284;9.892;2024-03-17T01:55:38;8.70;99.90
20102;DHT22;10210;52.284;9.892;2024-03-17T01:58:07;8.70;99.90
20102;DHT22;10210;52.284;9.892;2024-03-17T02:00:41;8.60;99.90
20102;DHT22;10210;52.284;9.892;2024-03-17T02:03:09;8.60;99.90
20102;DHT22;10210;52.284;9.892;2024-03-17T02:05:35;8.60;99.90
20102;DHT22;10210;52.284;9.892;2024-03-17T02:08:05;8.50;99.90
20102;DHT22;10210;52.284;9.892;2024-03-17T02:10:38;8.50;99.90
20102;DHT22;10210;52.284;9.892;2024-03-17T02:13:04;8.50;99.90
20102;DHT22;10210;52.284;9.892;2024-03-17T02:15:31;8.40;99.90
20102;DHT22;10210;52.284;9.892;2024-03-17T02:17:58;8.40;99.90
20102;DHT22;10210;52.284;9.892;2024-03-17T02:20:24;8.40;99.90
20102;DHT22;10210;52.284;9.892;2024-03-17T02:23:10;8.40;99.90
20102;DHT22;10210;52.284;9.892;2024-03-17T02:25:39;8.40;99.90
20102;DHT22;10210;52.284;9.892;2024-03-17T02:28:07;8.30;99.90
20102;DHT22;10210;52.284;9.892;2024-03-17T02:30:32;8.30;99.90
20102;DHT22;10210;52.284;9.892;2024-03-17T02:32:58;8.30;99.90
20102;DHT22;10210;52.284;9.892;2024-03-17T02:35:25;8.30;99.90
20102;DHT22;10210;52.284;9.892;2024-03-17T02:37:51;8.30;99.90
20102;DHT22;10210;52.284;9.892;2024-03-17T02:40:17;8.20;99.90
20102;DHT22;10210;52.284;9.892;2024-03-17T02:42:44;8.20;99.90
20102;DHT22;10210;52.284;9.892;2024-03-17T02:45:14;8.20;99.90
20102;DHT22;10210;52.284;9.892;2024-03-17T02:47:41;8.10;99.90
20102;DHT22;10210;52.284;9.892;2024-03-17T02:50:08;8.10;99.90
20102;DHT22;10210;52.284;9.892;2024-03-17T02:52:38;8.00;99.90
20102;DHT22;10210;52.284;9.892;2024-03-17T02:55:04;8.00;99.90
20102;DHT22;10210;52.284;9.892;2024-03-17T02:57:31;7.90;99.90
20102;DHT22;10210;52.284;9.892;2024-03-17T03:00:00;7.90;99.90
20102;DHT22;10210;52.284;9.892;2024-03-17T03:02:29;7.90;99.90
20102;DHT22;10210;52.284;9.892;2024-03-17T03:04:55;7.90;99.90
20102;DHT22;10210;52.284;9.892;2024-03-17T03:07:20;7.80;99.90
20102;DHT22;10210;52.284;9.892;2024-03-17T03:09:46;7.70;99.90
20102;DHT22;10210;52.284;9.892;2024-03-17T03:12:14;7.70;99.90
20102;DHT22;10210;52.284;9.892;2024-03-17T03:14:39;7.70;99.90
20102;DHT22;10210;52.284;9.892;2024-03-17T03:17:05;7.70;99.90
20102;DHT22;10210;52.284;9.892;2024-03-17T03:19:31;7.70;99.90
20102;DHT22;10210;52.284;9.892;2024-03-17T03:21:56;7.70;99.90
20102;DHT22;10210;52.284;9.892;2024-03-17T03:24:22;7.70;99.90
20102;DHT22;10210;52.284;9.892;2024-03-17T03:26:48;7.70;99.90
20102;DHT22;10210;52.284;9.892;2024-03-17T03:29:14;7.70;99.90
20102;DHT22;10210;52.284;9.892;2024-03-17T03:31:40;7.70;99.90
20102;DHT22;10210;52.284;9.892;2024-03-17T03:34:06;7.70;99.90
20102;DHT22;10210;52.284;9.892;2024-03-17T03:36:34;7.70;99.90
20102;DHT22;10210;52.284;9.892;2024-03-17T03:39:04;7.70;99.90
20102;DHT22;10210;52.284;9.892;2024-03-17T03:41:30;7.70;99.90
20102;DHT22;10210;52.284;9.892;2024-03-17T03:43:58;7.70;99.90
20102;DHT22;10210;52.284;9.892;2024-03-17T03:46:23;7.70;99.90
20102;DHT22;10210;52.284;9.892;2024-03-17T03:48:49;7.70;99.90
20102;DHT22;10210;52.284;9.892;2024-03-17T03:51:15;7.70;99.90
20102;DHT22;10210;52.284;9.892;2024-03-17T03:53:40;7.70;99.90
20102;DHT22;10210;52.284;9.892;2024-03-17T03:56:09;7.60;99.90
20102;DHT22;10210;52.284;9.892;2024-03-17T03:58:38;7.60;99.90
20102;DHT22;10210;52.284;9.892;2024-03-17T04:01:10;7.60;99.90
20102;DHT22;10210;52.284;9.892;2024-03-17T04:03:48;7.50;99.90
20102;DHT22;10210;52.284;9.892;2024-03-17T04:06:17;7.40;99.90
20102;DHT22;10210;52.284;9.892;2024-03-17T04:08:43;7.40;99.90
20102;DHT22;10210;52.284;9.892;2024-03-17T04:11:09;7.40;99.90
20102;DHT22;10210;52.284;9.892;2024-03-17T04:13:37;7.30;99.90
20102;DHT22;10210;52.284;9.892;2024-03-17T04:16:05;7.20;99.90
20102;DHT22;10210;52.284;9.892;2024-03-17T04:18:32;7.20;99.90
20102;DHT22;10210;52.284;9.892;2024-03-17T04:21:02;7.20;99.90
20102;DHT22;10210;52.284;9.892;2024-03-17T04:23:34;7.10;99.90
20102;DHT22;10210;52.284;9.892;2024-03-17T04:26:01;7.10;99.90
20102;DHT22;10210;52.284;9.892;2024-03-17T04:28:28;7.10;99.90
20102;DHT22;10210;52.284;9.892;2024-03-17T04:31:04;7.10;99.90
20102;DHT22;10210;52.284;9.892;2024-03-17T04:33:32;7.20;99.90
20102;DHT22;10210;52.284;9.892;2024-03-17T04:35:58;7.20;99.90
20102;DHT22;10210;52.284;9.892;2024-03-17T04:38:24;7.20;99.90
20102;DHT22;10210;52.284;9.892;2024-03-17T04:40:53;7.30;99.90
20102;DHT22;10210;52.284;9.892;2024-03-17T04:43:29;7.30;99.90
20102;DHT22;10210;52.284;9.892;2024-03-17T04:46:04;7.30;99.90
20102;DHT22;10210;52.284;9.892;2024-03-17T04:48:32;7.40;99.90
20102;DHT22;10210;52.284;9.892;2024-03-17T04:50:59;7.40;99.90
20102;DHT22;10210;52.284;9.892;2024-03-17T04:53:26;7.50;99.90
20102;DHT22;10210;52.284;9.892;2024-03-17T04:56:00;7.50;99.90
20102;DHT22;10210;52.284;9.892;2024-03-17T04:58:27;7.50;99.90
20102;DHT22;10210;52.284;9.892;2024-03-17T05:00:52;7.60;99.90
20102;DHT22;10210;52.284;9.892;2024-03-17T05:03:19;7.60;99.90
20102;DHT22;10210;52.284;9.892;2024-03-17T05:05:45;7.60;99.90
20102;DHT22;10210;52.284;9.892;2024-03-17T05:08:12;7.60;99.90
20102;DHT22;10210;52.284;9.892;2024-03-17T05:10:39;7.60;99.90
20102;DHT22;10210;52.284;9.892;2024-03-17T05:13:04;7.70;99.90
20102;DHT22;10210;52.284;9.892;2024-03-17T05:15:30;7.70;99.90
20102;DHT22;10210;52.284;9.892;2024-03-17T05:17:56;7.70;99.90
20102;DHT22;10210;52.284;9.892;2024-03-17T05:20:22;7.70;99.90
20102;DHT22;10210;52.284;9.892;2024-03-17T05:22:49;7.70;99.90
20102;DHT22;10210;52.284;9.892;2024-03-17T05:25:15;7.70;99.90
20102;DHT22;10210;52.284;9.892;2024-03-17T05:27:40;7.70;99.90
20102;DHT22;10210;52.284;9.892;2024-03-17T05:30:06;7.70;99.90
20102;DHT22;10210;52.284;9.892;2024-03-17T05:32:34;7.70;99.90
20102;DHT22;10210;52.284;9.892;2024-03-17T05:35:00;7.70;99.90
20102;DHT22;10210;52.284;9.892;2024-03-17T05:37:25;7.70;99.90
20102;DHT22;10210;52.284;9.892;2024-03-17T05:39:53;7.70;99.90
20102;DHT22;10210;52.284;9.892;2024-03-17T05:42:22;7.70;99.90
20102;DHT22;10210;52.284;9.892;2024-03-17T05:44:48;7.60;99.90
20102;DHT22;10210;52.284;9.892;2024-03-17T05:47:20;7.60;99.90
20102;DHT22;10210;52.284;9.892;2024-03-17T05:49:45;7.60;99.90
20102;DHT22;10210;52.284;9.892;2024-03-17T05:52:12;7.60;99.90
20102;DHT22;10210;52.284;9.892;2024-03-17T05:54:38;7.60;99.90
20102;DHT22;10210;52.284;9.892;2024-03-17T05:57:04;7.60;99.90
20102;DHT22;10210;52.284;9.892;2024-03-17T05:59:30;7.60;99.90
20102;DHT22;10210;52.284;9.892;2024-03-17T06:01:58;7.60;99.90
20102;DHT22;10210;52.284;9.892;2024-03-17T06:04:24;7.60;99.90
20102;DHT22;10210;52.284;9.892;2024-03-17T06:06:50;7.50;99.90
20102;DHT22;10210;52.284;9.892;2024-03-17T06:09:17;7.50;99.90
20102;DHT22;10210;52.284;9.892;2024-03-17T06:11:46;7.50;99.90
20102;DHT22;10210;52.284;9.892;2024-03-17T06:14:11;7.50;99.90
20102;DHT22;10210;52.284;9.892;2024-03-17T06:16:38;7.50;99.90
20102;DHT22;10210;52.284;9.892;2024-03-17T06:19:04;7.40;99.90
20102;DHT22;10210;52.284;9.892;2024-03-17T06:21:31;7.40;99.90
20102;DHT22;10210;52.284;9.892;2024-03-17T06:23:56;7.40;99.90
20102;DHT22;10210;52.284;9.892;2024-03-17T06:26:22;7.40;99.90
20102;DHT22;10210;52.284;9.892;2024-03-17T06:28:48;7.40;99.90
20102;DHT22;10210;52.284;9.892;2024-03-17T06:31:14;7.40;99.90
20102;DHT22;10210;52.284;9.892;2024-03-17T06:33:41;7.40;99.90
20102;DHT22;10210;52.284;9.892;2024-03-17T06:36:07;7.40;99.90
20102;DHT22;10210;52.284;9.892;2024-03-17T06:38:33;7.50;99.90
20102;DHT22;10210;52.284;9.892;2024-03-17T06:40:59;7.50;99.90
20102;DHT22;10210;52.284;9.892;2024-03-17T06:43:25;7.50;99.90
20102;DHT22;10210;52.284;9.892;2024-03-17T06:45:57;7.50;99.90
20102;DHT22;10210;52.284;9.892;2024-03-17T06:48:25;7.60;99.90
20102;DHT22;10210;52.284;9.892;2024-03-17T06:50:53;7.60;99.90
20102;DHT22;10210;52.284;9.892;2024-03-17T06:53:23;7.70;99.90
20102;DHT22;10210;52.284;9.892;2024-03-17T06:55:55;7.80;99.90
20102;DHT22;10210;52.284;9.892;2024-03-17T06:58:24;7.90;99.90
20102;DHT22;10210;52.284;9.892;2024-03-17T07:00:59;7.90;99.90
20102;DHT22;10210;52.284;9.892;2024-03-17T07:03:27;8.00;99.90
20102;DHT22;10210;52.284;9.892;2024-03-17T07:05:55;8.10;99.90
20102;DHT22;10210;52.284;9.892;2024-03-17T07:08:24;8.20;99.90
20102;DHT22;10210;52.284;9.892;2024-03-17T07:13:35;8.20;99.90
20102;DHT22;10210;52.284;9.892;2024-03-17T07:16:05;8.30;99.90
20102;DHT22;10210;52.284;9.892;2024-03-17T07:18:32;8.40;99.90
20102;DHT22;10210;52.284;9.892;2024-03-17T07:21:03;8.40;99.90
20102;DHT22;10210;52.284;9.892;2024-03-17T07:23:30;8.40;99.90
20102;DHT22;10210;52.284;9.892;2024-03-17T07:25:58;8.50;99.90
20102;DHT22;10210;52.284;9.892;2024-03-17T07:28:25;8.60;99.90
20102;DHT22;10210;52.284;9.892;2024-03-17T07:30:53;8.60;99.90
20102;DHT22;10210;52.284;9.892;2024-03-17T07:33:20;8.60;99.90
20102;DHT22;10210;52.284;9.892;2024-03-17T07:35:53;8.70;99.90
20102;DHT22;10210;52.284;9.892;2024-03-17T07:38:23;8.70;99.90
20102;DHT22;10210;52.284;9.892;2024-03-17T07:40:59;8.80;99.90
20102;DHT22;10210;52.284;9.892;2024-03-17T07:43:27;8.80;99.90
20102;DHT22;10210;52.284;9.892;2024-03-17T07:46:06;8.90;99.90
20102;DHT22;10210;52.284;9.892;2024-03-17T07:48:36;8.90;99.90
20102;DHT22;10210;52.284;9.892;2024-03-17T07:51:05;9.00;99.90
20102;DHT22;10210;52.284;9.892;2024-03-17T07:53:38;9.10;99.90
20102;DHT22;10210;52.284;9.892;2024-03-17T07:56:09;9.20;99.90
20102;DHT22;10210;52.284;9.892;2024-03-17T07:58:41;9.30;99.90
20102;DHT22;10210;52.284;9.892;2024-03-17T08:01:12;9.40;99.90
20102;DHT22;10210;52.284;9.892;2024-03-17T08:03:40;9.50;99.90
20102;DHT22;10210;52.284;9.892;2024-03-17T08:06:09;9.70;99.90
20102;DHT22;10210;52.284;9.892;2024-03-17T08:08:36;9.90;99.90
20102;DHT22;10210;52.284;9.892;2024-03-17T08:11:04;10.20;99.90
20102;DHT22;10210;52.284;9.892;2024-03-17T08:13:30;10.60;99.90
20102;DHT22;10210;52.284;9.892;2024-03-17T08:16:04;11.10;99.90
20102;DHT22;10210;52.284;9.892;2024-03-17T08:18:34;11.50;99.90
20102;DHT22;10210;52.284;9.892;2024-03-17T08:21:01;12.00;99.90
20102;DHT22;10210;52.284;9.892;2024-03-17T08:23:32;12.50;99.90
20102;DHT22;10210;52.284;9.892;2024-03-17T08:26:02;12.90;99.90
20102;DHT22;10210;52.284;9.892;2024-03-17T08:28:28;13.30;99.90
20102;DHT22;10210;52.284;9.892;2024-03-17T08:30:58;13.60;99.90
20102;DHT22;10210;52.284;9.892;2024-03-17T08:33:29;13.90;99.90
20102;DHT22;10210;52.284;9.892;2024-03-17T08:35:58;14.20;99.90
20102;DHT22;10210;52.284;9.892;2024-03-17T08:38:26;14.40;99.90
20102;DHT22;10210;52.284;9.892;2024-03-17T08:40:56;14.70;99.90
20102;DHT22;10210;52.284;9.892;2024-03-17T08:43:30;14.90;99.90
20102;DHT22;10210;52.284;9.892;2024-03-17T08:48:24;15.20;99.90
20102;DHT22;10210;52.284;9.892;2024-03-17T08:50:51;15.30;99.90
20102;DHT22;10210;52.284;9.892;2024-03-17T08:53:20;15.40;99.90
20102;DHT22;10210;52.284;9.892;2024-03-17T08:55:46;15.40;99.90
20102;DHT22;10210;52.284;9.892;2024-03-17T08:58:15;15.50;99.90
20102;DHT22;10210;52.284;9.892;2024-03-17T09:00:41;15.50;99.90
20102;DHT22;10210;52.284;9.892;2024-03-17T09:03:08;15.50;99.90
20102;DHT22;10210;52.284;9.892;2024-03-17T09:05:36;15.50;99.90
20102;DHT22;10210;52.284;9.892;2024-03-17T09:08:04;15.50;99.90
20102;DHT22;10210;52.284;9.892;2024-03-17T09:10:30;15.40;99.90
20102;DHT22;10210;52.284;9.892;2024-03-17T09:12:56;15.40;99.90
20102;DHT22;10210;52.284;9.892;2024-03-17T09:15:22;15.40;99.90
20102;DHT22;10210;52.284;9.892;2024-03-17T09:17:47;15.40;99.90
20102;DHT22;10210;52.284;9.892;2024-03-17T09:20:13;15.50;99.90
20102;DHT22;10210;52.284;9.892;2024-03-17T09:22:40;15.50;99.90
20102;DHT22;10210;52.284;9.892;2024-03-17T09:25:07;15.60;99.90
20102;DHT22;10210;52.284;9.892;2024-03-17T09:27:34;15.60;99.90
20102;DHT22;10210;52.284;9.892;2024-03-17T09:30:05;15.60;99.90
20102;DHT22;10210;52.284;9.892;2024-03-17T09:32:40;15.60;99.90
20102;DHT22;10210;52.284;9.892;2024-03-17T09:35:07;15.60;99.90
20102;DHT22;10210;52.284;9.892;2024-03-17T09:37:33;15.50;99.90
20102;DHT22;10210;52.284;9.892;2024-03-17T09:39:58;15.40;99.90
20102;DHT22;10210;52.284;9.892;2024-03-17T09:42:28;15.30;99.90
20102;DHT22;10210;52.284;9.892;2024-03-17T09:44:54;15.20;99.90
20102;DHT22;10210;52.284;9.892;2024-03-17T09:47:23;15.20;99.90
20102;DHT22;10210;52.284;9.892;2024-03-17T09:49:50;15.20;99.90
20102;DHT22;10210;52.284;9.892;2024-03-17T09:52:24;15.30;99.90
20102;DHT22;10210;52.284;9.892;2024-03-17T09:54:58;15.40;99.90
20102;DHT22;10210;52.284;9.892;2024-03-17T09:57:26;15.50;99.90
20102;DHT22;10210;52.284;9.892;2024-03-17T09:59:54;15.60;99.90
20102;DHT22;10210;52.284;9.892;2024-03-17T10:02:21;15.70;99.90
20102;DHT22;10210;52.284;9.892;2024-03-17T10:04:48;15.80;99.90
20102;DHT22;10210;52.284;9.892;2024-03-17T10:07:14;15.80;99.90
20102;DHT22;10210;52.284;9.892;2024-03-17T10:09:41;15.80;99.90
20102;DHT22;10210;52.284;9.892;2024-03-17T10:12:29;15.80;99.90
20102;DHT22;10210;52.284;9.892;2024-03-17T10:15:01;15.90;99.90
20102;DHT22;10210;52.284;9.892;2024-03-17T10:17:34;15.90;99.90
20102;DHT22;10210;52.284;9.892;2024-03-17T10:20:21;15.90;99.90
20102;DHT22;10210;52.284;9.892;2024-03-17T10:23:04;16.00;99.90
20102;DHT22;10210;52.284;9.892;2024-03-17T10:25:34;16.10;99.90
20102;DHT22;10210;52.284;9.892;2024-03-17T10:28:11;16.00;99.90
20102;DHT22;10210;52.284;9.892;2024-03-17T10:30:39;16.00;99.90
20102;DHT22;10210;52.284;9.892;2024-03-17T10:33:06;16.00;99.90
20102;DHT22;10210;52.284;9.892;2024-03-17T10:35:38;16.00;99.90
20102;DHT22;10210;52.284;9.892;2024-03-17T10:38:05;16.10;99.90
20102;DHT22;10210;52.284;9.892;2024-03-17T10:40:33;16.00;99.90
20102;DHT22;10210;52.284;9.892;2024-03-17T10:43:01;16.00;99.90
20102;DHT22;10210;52.284;9.892;2024-03-17T10:45:28;15.90;99.90
20102;DHT22;10210;52.284;9.892;2024-03-17T10:48:01;15.80;99.90
20102;DHT22;10210;52.284;9.892;2024-03-17T10:50:31;15.70;99.90
20102;DHT22;10210;52.284;9.892;2024-03-17T10:53:03;15.60;99.90
20102;DHT22;10210;52.284;9.892;2024-03-17T10:55:43;15.60;99.90
20102;DHT22;10210;52.284;9.892;2024-03-17T10:58:33;15.50;99.90
20102;DHT22;10210;52.284;9.892;2024-03-17T11:01:04;15.50;99.90
20102;DHT22;10210;52.284;9.892;2024-03-17T11:03:32;15.40;99.90
20102;DHT22;10210;52.284;9.892;2024-03-17T11:06:01;15.30;99.90
20102;DHT22;10210;52.284;9.892;2024-03-17T11:08:30;15.30;99.90
20102;DHT22;10210;52.284;9.892;2024-03-17T11:10:58;15.20;99.90
20102;DHT22;10210;52.284;9.892;2024-03-17T11:13:28;15.10;99.90
20102;DHT22;10210;52.284;9.892;2024-03-17T11:15:58;15.10;99.90
20102;DHT22;10210;52.284;9.892;2024-03-17T11:18:29;15.00;99.90
20102;DHT22;10210;52.284;9.892;2024-03-17T11:21:00;14.90;99.90
20102;DHT22;10210;52.284;9.892;2024-03-17T11:23:32;14.90;99.90
20102;DHT22;10210;52.284;9.892;2024-03-17T11:25:58;14.80;99.90
20102;DHT22;10210;52.284;9.892;2024-03-17T11:31:36;14.70;99.90
20102;DHT22;10210;52.284;9.892;2024-03-17T11:34:28;14.70;99.90
20102;DHT22;10210;52.284;9.892;2024-03-17T11:36:57;14.80;99.90
20102;DHT22;10210;52.284;9.892;2024-03-17T11:39:51;14.90;99.90
20102;DHT22;10210;52.284;9.892;2024-03-17T11:42:26;15.00;99.90
20102;DHT22;10210;52.284;9.892;2024-03-17T11:44:57;15.10;99.90
20102;DHT22;10210;52.284;9.892;2024-03-17T11:47:33;15.20;99.90
20102;DHT22;10210;52.284;9.892;2024-03-17T11:50:03;15.30;99.90
20102;DHT22;10210;52.284;9.892;2024-03-17T11:52:30;15.20;99.90
20102;DHT22;10210;52.284;9.892;2024-03-17T11:54:55;15.30;99.90
20102;DHT22;10210;52.284;9.892;2024-03-17T11:57:23;15.30;99.90
20102;DHT22;10210;52.284;9.892;2024-03-17T11:59:52;15.30;99.90
20102;DHT22;10210;52.284;9.892;2024-03-17T12:02:19;15.30;99.90
20102;DHT22;10210;52.284;9.892;2024-03-17T12:04:46;15.20;99.90
20102;DHT22;10210;52.284;9.892;2024-03-17T12:07:14;15.30;99.90
20102;DHT22;10210;52.284;9.892;2024-03-17T12:09:42;15.30;99.90
20102;DHT22;10210;52.284;9.892;2024-03-17T12:12:29;15.30;99.90
20102;DHT22;10210;52.284;9.892;2024-03-17T12:15:02;15.30;99.90
20102;DHT22;10210;52.284;9.892;2024-03-17T12:17:29;15.30;99.90
20102;DHT22;10210;52.284;9.892;2024-03-17T12:19:55;15.40;99.90
20102;DHT22;10210;52.284;9.892;2024-03-17T12:22:23;15.30;99.90
20102;DHT22;10210;52.284;9.892;2024-03-17T12:24:58;15.40;99.90
20102;DHT22;10210;52.284;9.892;2024-03-17T12:27:25;15.50;99.90
20102;DHT22;10210;52.284;9.892;2024-03-17T12:29:53;15.60;99.90
20102;DHT22;10210;52.284;9.892;2024-03-17T12:32:24;15.60;99.90
20102;DHT22;10210;52.284;9.892;2024-03-17T12:34:52;15.70;99.90
20102;DHT22;10210;52.284;9.892;2024-03-17T12:37:26;15.70;99.90
20102;DHT22;10210;52.284;9.892;2024-03-17T12:39:59;15.80;99.90
20102;DHT22;10210;52.284;9.892;2024-03-17T12:42:29;15.90;99.90
20102;DHT22;10210;52.284;9.892;2024-03-17T12:45:00;15.90;99.90
20102;DHT22;10210;52.284;9.892;2024-03-17T12:47:28;15.90;99.90
20102;DHT22;10210;52.284;9.892;2024-03-17T12:49:59;16.00;99.90
20102;DHT22;10210;52.284;9.892;2024-03-17T12:52:27;16.10;99.90
20102;DHT22;10210;52.284;9.892;2024-03-17T12:57:43;16.20;99.90
20102;DHT22;10210;52.284;9.892;2024-03-17T13:00:28;16.20;99.90
20102;DHT22;10210;52.284;9.892;2024-03-17T13:02:57;16.30;99.90
20102;DHT22;10210;52.284;9.892;2024-03-17T13:05:23;16.40;99.90
20102;DHT22;10210;52.284;9.892;2024-03-17T13:07:50;16.40;99.90
20102;DHT22;10210;52.284;9.892;2024-03-17T13:10:18;16.50;99.90
20102;DHT22;10210;52.284;9.892;2024-03-17T13:12:45;16.50;99.90
20102;DHT22;10210;52.284;9.892;2024-03-17T13:15:16;16.60;99.90
20102;DHT22;10210;52.284;9.892;2024-03-17T13:17:43;16.60;99.90
20102;DHT22;10210;52.284;9.892;2024-03-17T13:20:14;16.60;99.90
20102;DHT22;10210;52.284;9.892;2024-03-17T13:22:42;16.70;99.90
20102;DHT22;10210;52.284;9.892;2024-03-17T13:25:19;16.70;99.90
20102;DHT22;10210;52.284;9.892;2024-03-17T13:27:48;16.70;99.90
20102;DHT22;10210;52.284;9.892;2024-03-17T13:30:15;16.80;99.90
20102;DHT22;10210;52.284;9.892;2024-03-17T13:32:42;16.80;99.90
20102;DHT22;10210;52.284;9.892;2024-03-17T13:35:15;16.80;99.90
20102;DHT22;10210;52.284;9.892;2024-03-17T13:37:43;16.80;99.90
20102;DHT22;10210;52.284;9.892;2024-03-17T13:40:12;16.80;99.90
20102;DHT22;10210;52.284;9.892;2024-03-17T13:42:40;16.90;99.90
20102;DHT22;10210;52.284;9.892;2024-03-17T13:45:10;16.90;99.90
20102;DHT22;10210;52.284;9.892;2024-03-17T13:47:41;16.90;99.90
20102;DHT22;10210;52.284;9.892;2024-03-17T13:50:11;17.00;99.90
20102;DHT22;10210;52.284;9.892;2024-03-17T13:52:39;17.00;99.90
20102;DHT22;10210;52.284;9.892;2024-03-17T13:55:06;17.10;99.90
20102;DHT22;10210;52.284;9.892;2024-03-17T13:57:39;17.10;99.90
20102;DHT22;10210;52.284;9.892;2024-03-17T14:00:06;17.10;99.90
20102;DHT22;10210;52.284;9.892;2024-03-17T14:02:33;17.20;99.90
20102;DHT22;10210;52.284;9.892;2024-03-17T14:04:59;17.20;99.90
20102;DHT22;10210;52.284;9.892;2024-03-17T14:07:25;17.20;99.90
20102;DHT22;10210;52.284;9.892;2024-03-17T14:09:51;17.30;99.90
20102;DHT22;10210;52.284;9.892;2024-03-17T14:12:17;17.30;99.90
20102;DHT22;10210;52.284;9.892;2024-03-17T14:14:42;17.20;99.90
20102;DHT22;10210;52.284;9.892;2024-03-17T14:17:09;17.30;99.90
20102;DHT22;10210;52.284;9.892;2024-03-17T14:19:35;17.20;99.90
20102;DHT22;10210;52.284;9.892;2024-03-17T14:22:01;17.20;99.90
20102;DHT22;10210;52.284;9.892;2024-03-17T14:24:26;17.20;99.90
20102;DHT22;10210;52.284;9.892;2024-03-17T14:26:53;17.20;99.90
20102;DHT22;10210;52.284;9.892;2024-03-17T14:29:19;17.20;99.90
20102;DHT22;10210;52.284;9.892;2024-03-17T14:31:45;17.20;99.90
20102;DHT22;10210;52.284;9.892;2024-03-17T14:34:11;17.20;99.90
20102;DHT22;10210;52.284;9.892;2024-03-17T14:36:38;17.20;99.90
20102;DHT22;10210;52.284;9.892;2024-03-17T14:39:04;17.30;99.90
20102;DHT22;10210;52.284;9.892;2024-03-17T14:41:30;17.30;99.90
20102;DHT22;10210;52.284;9.892;2024-03-17T14:43:56;17.20;99.90
20102;DHT22;10210;52.284;9.892;2024-03-17T14:46:23;17.20;99.90
20102;DHT22;10210;52.284;9.892;2024-03-17T14:48:51;17.20;99.90
20102;DHT22;10210;52.284;9.892;2024-03-17T14:51:20;17.20;99.90
20102;DHT22;10210;52.284;9.892;2024-03-17T14:53:49;17.30;99.90
20102;DHT22;10210;52.284;9.892;2024-03-17T14:56:19;17.30;99.90
20102;DHT22;10210;52.284;9.892;2024-03-17T14:58:46;17.30;99.90
20102;DHT22;10210;52.284;9.892;2024-03-17T15:01:13;17.30;99.90
20102;DHT22;10210;52.284;9.892;2024-03-17T15:03:39;17.30;99.90
20102;DHT22;10210;52.284;9.892;2024-03-17T15:06:14;17.30;99.90
20102;DHT22;10210;52.284;9.892;2024-03-17T15:08:41;17.30;99.90
20102;DHT22;10210;52.284;9.892;2024-03-17T15:11:07;17.30;99.90
20102;DHT22;10210;52.284;9.892;2024-03-17T15:13:34;17.30;99.90
20102;DHT22;10210;52.284;9.892;2024-03-17T15:16:01;17.30;99.90
20102;DHT22;10210;52.284;9.892;2024-03-17T15:18:34;17.30;99.90
20102;DHT22;10210;52.284;9.892;2024-03-17T15:21:00;17.30;99.90
20102;DHT22;10210;52.284;9.892;2024-03-17T15:23:30;17.30;99.90
20102;DHT22;10210;52.284;9.892;2024-03-17T15:25:59;17.20;99.90
20102;DHT22;10210;52.284;9.892;2024-03-17T15:28:26;17.20;99.90
20102;DHT22;10210;52.284;9.892;2024-03-17T15:30:52;17.10;99.90
20102;DHT22;10210;52.284;9.892;2024-03-17T15:33:18;17.00;99.90
20102;DHT22;10210;52.284;9.892;2024-03-17T15:35:43;17.00;99.90
20102;DHT22;10210;52.284;9.892;2024-03-17T15:38:09;16.80;99.90
20102;DHT22;10210;52.284;9.892;2024-03-17T15:40:38;16.80;99.90
20102;DHT22;10210;52.284;9.892;2024-03-17T15:43:04;16.70;99.90
20102;DHT22;10210;52.284;9.892;2024-03-17T15:45:29;16.70;99.90
20102;DHT22;10210;52.284;9.892;2024-03-17T15:47:55;16.60;99.90
20102;DHT22;10210;52.284;9.892;2024-03-17T15:50:22;16.50;99.90
20102;DHT22;10210;52.284;9.892;2024-03-17T15:52:47;16.50;99.90
20102;DHT22;10210;52.284;9.892;2024-03-17T15:55:13;16.40;99.90
20102;DHT22;10210;52.284;9.892;2024-03-17T15:57:39;16.40;99.90